Time;durP1;ratioP1;P1;durP2;ratioP2;P2;SDS_P1;SDS_P2;PMS_P1;PMS_P2;Temp;Humidity;BMP_temperature;BMP_pressure;BME280_temperature;BME280_humidity;BME280_pressure;Samples;Min_cycle;Max_cycle;Signal;HPM_P1;HPM_P2
2021/06/02 00:01:55;;;;;;;8.57;5.90;;;;;;;17.21;55.69;100407.22;4864592;28;98006;-80
2021/06/02 00:04:23;;;;;;;11.73;5.85;;;;;;;17.25;55.69;100405.22;4859098;28;101914;-80
2021/06/02 00:06:49;;;;;;;8.90;6.00;;;;;;;17.29;55.31;100399.66;4858062;28;97713;-80
2021/06/02 00:09:16;;;;;;;9.98;6.35;;;;;;;17.19;55.82;100398.47;4858873;28;97070;-81
2021/06/02 00:11:42;;;;;;;10.57;6.50;;;;;;;17.14;56.11;100401.44;4843538;28;96982;-81
2021/06/02 00:14:09;;;;;;;10.63;6.00;;;;;;;17.14;56.10;100396.13;4874678;28;97822;-81
2021/06/02 00:16:35;;;;;;;8.45;5.60;;;;;;;17.20;55.68;100394.91;4862133;28;101039;-81
2021/06/02 00:19:01;;;;;;;10.30;5.68;;;;;;;17.08;56.18;100398.31;4861971;28;97148;-81
2021/06/02 00:21:28;;;;;;;11.55;6.00;;;;;;;17.24;55.32;100403.53;4860329;28;97131;-79
2021/06/02 00:23:53;;;;;;;8.05;6.05;;;;;;;17.20;55.50;100400.22;4859700;28;101959;-81
2021/06/02 00:26:20;;;;;;;9.48;5.93;;;;;;;17.11;55.72;100400.75;4862613;28;98085;-81
2021/06/02 00:28:46;;;;;;;11.40;6.22;;;;;;;17.06;55.69;100394.88;4862311;28;96622;-80
2021/06/02 00:31:13;;;;;;;8.75;5.55;;;;;;;17.09;55.55;100402.66;4862021;28;97034;-81
2021/06/02 00:33:39;;;;;;;8.80;5.07;;;;;;;17.01;55.79;100400.44;4845488;28;101446;-81
2021/06/02 00:36:05;;;;;;;9.80;5.25;;;;;;;17.03;55.32;100403.00;4861433;28;101601;-81
2021/06/02 00:38:33;;;;;;;8.80;5.95;;;;;;;17.12;55.08;100400.66;4862916;28;96640;-81
2021/06/02 00:40:58;;;;;;;9.00;5.00;;;;;;;17.06;55.00;100394.88;4861840;28;96890;-81
2021/06/02 00:43:24;;;;;;;11.07;5.97;;;;;;;16.99;55.49;100397.03;4858171;28;100928;-81
2021/06/02 00:45:50;;;;;;;10.65;6.55;;;;;;;17.03;55.21;100403.88;4861470;28;101445;-79
2021/06/02 00:48:17;;;;;;;10.65;6.28;;;;;;;16.98;55.38;100395.31;4861698;28;96947;-81
2021/06/02 00:50:48;;;;;;;11.15;5.60;;;;;;;16.94;55.32;100391.16;4863031;28;97369;-81
2021/06/02 00:53:14;;;;;;;10.38;5.47;;;;;;;16.79;55.76;100403.53;4861750;28;101585;-81
2021/06/02 00:55:41;;;;;;;12.23;7.30;;;;;;;16.92;55.61;100401.00;4861980;28;101460;-81
2021/06/02 00:58:09;;;;;;;9.02;6.07;;;;;;;16.97;55.71;100404.22;4861175;28;96953;-81
2021/06/02 01:00:35;;;;;;;9.15;5.53;;;;;;;16.86;55.59;100394.25;4877921;28;96905;-81
2021/06/02 01:03:02;;;;;;;9.98;5.50;;;;;;;16.96;55.66;100414.00;4876271;28;97585;-79
2021/06/02 01:05:29;;;;;;;8.63;5.80;;;;;;;16.95;55.60;100406.97;4895055;28;98057;-80
2021/06/02 01:08:00;;;;;;;11.43;6.03;;;;;;;16.83;55.72;100404.19;4895342;28;96965;-81
2021/06/02 01:10:26;;;;;;;;;;;;;;;16.78;55.93;100406.25;4897339;28;97017;-81
2021/06/02 01:12:53;;;;;;;7.40;5.50;;;;;;;16.78;55.67;100411.53;4880104;28;100973;-79
2021/06/02 01:15:19;;;;;;;7.38;5.80;;;;;;;16.74;56.06;100413.50;4865396;28;101723;-81
2021/06/02 01:17:45;;;;;;;12.65;6.30;;;;;;;16.81;55.67;100417.53;4865158;28;97436;-81
2021/06/02 01:20:11;;;;;;;9.20;5.65;;;;;;;16.87;55.71;100417.19;4896411;28;97321;-81
2021/06/02 01:22:39;;;;;;;11.07;5.68;;;;;;;16.81;56.03;100424.63;4895797;28;98215;-81
2021/06/02 01:25:09;;;;;;;14.75;6.15;;;;;;;16.85;55.71;100428.81;4868717;28;100917;-81
2021/06/02 01:27:35;;;;;;;13.45;6.22;;;;;;;16.64;56.52;100428.22;4876703;28;96887;-81
2021/06/02 01:30:00;;;;;;;11.80;6.13;;;;;;;16.56;56.61;100426.03;4844868;28;96835;-81
2021/06/02 01:33:00;;;;;;;10.57;6.70;;;;;;;16.57;56.69;100430.38;4861223;28;101878;-82
2021/06/02 01:35:46;;;;;;;16.23;6.55;;;;;;;16.51;56.76;100433.38;4877237;28;100061;-82
2021/06/02 01:38:21;;;;;;;12.75;6.30;;;;;;;16.47;56.86;100440.66;4876824;28;96733;-82
2021/06/02 01:41:22;;;;;;;10.95;6.03;;;;;;;16.57;56.85;100438.31;4877954;28;97140;-82
2021/06/02 01:44:03;;;;;;;15.23;6.65;;;;;;;16.60;56.53;100434.63;4861429;28;101362;-82
2021/06/02 01:46:28;;;;;;;11.05;6.85;;;;;;;16.54;56.67;100438.50;4870774;28;101383;-81
2021/06/02 01:49:33;;;;;;;9.68;6.35;;;;;;;16.48;56.69;100439.69;4895404;28;97086;-79
2021/06/02 01:52:34;;;;;;;9.48;6.75;;;;;;;16.46;57.20;100444.25;4895588;28;97066;-81
2021/06/02 01:55:05;;;;;;;8.82;6.50;;;;;;;16.51;56.94;100438.66;4878960;28;101858;-81
2021/06/02 01:57:33;;;;;;;9.77;6.05;;;;;;;16.46;56.92;100451.31;4896228;28;98382;-81
2021/06/02 02:00:17;;;;;;;13.18;6.53;;;;;;;16.51;57.16;100447.47;4879739;28;96608;-82
2021/06/02 02:03:01;;;;;;;12.48;6.80;;;;;;;16.51;56.78;100449.25;4896210;28;96759;-81
2021/06/02 02:06:04;;;;;;;12.32;6.95;;;;;;;16.48;57.30;100449.44;4880041;28;101496;-82
2021/06/02 02:08:47;;;;;;;10.55;5.85;;;;;;;16.51;57.24;100449.25;4876400;28;98379;-81
2021/06/02 02:11:27;;;;;;;17.67;7.28;;;;;;;16.51;56.99;100455.41;4876059;28;97244;-81
2021/06/02 02:14:30;;;;;;;13.00;7.20;;;;;;;16.35;57.27;100449.28;4876276;28;97276;-81
2021/06/02 02:17:20;;;;;;;9.95;6.97;;;;;;;16.33;57.57;100464.41;4875461;28;100601;-79
2021/06/02 02:20:00;;;;;;;13.27;7.10;;;;;;;16.36;57.38;100464.22;4876393;28;101506;-82
2021/06/02 02:22:54;;;;;;;9.23;6.25;;;;;;;16.36;57.26;100458.09;4860827;28;97097;-82
2021/06/02 02:25:27;;;;;;;10.25;6.30;;;;;;;16.40;57.26;100470.22;4875892;28;97160;-81
2021/06/02 02:28:08;;;;;;;12.60;6.80;;;;;;;16.37;57.26;100467.72;4857612;28;101190;-82
2021/06/02 02:30:52;;;;;;;11.13;7.03;;;;;;;16.30;57.42;100464.56;4860587;28;100264;-81
2021/06/02 02:33:44;;;;;;;12.00;7.15;;;;;;;16.34;57.32;100470.56;4875588;28;96831;-81
2021/06/02 02:36:12;;;;;;;;;;;;;;;16.31;57.25;100466.28;4876790;28;97065;-81
2021/06/02 02:39:00;;;;;;;9.65;6.55;;;;;;;16.36;57.10;100466.88;4876141;28;98172;-81
2021/06/02 02:41:49;;;;;;;11.98;7.45;;;;;;;16.44;56.72;100475.25;4860635;28;101195;-82
2021/06/02 02:44:33;;;;;;;11.35;7.53;;;;;;;16.42;56.87;100465.69;4874537;28;97189;-81
2021/06/02 02:47:05;;;;;;;11.93;6.85;;;;;;;16.36;56.89;100473.97;4877237;28;97069;-79
2021/06/02 02:49:46;;;;;;;11.02;6.78;;;;;;;16.35;56.66;100472.25;4860505;28;98077;-81
2021/06/02 02:52:30;;;;;;;14.90;7.40;;;;;;;16.45;56.09;100473.47;4875235;28;101042;-82
2021/06/02 02:55:13;;;;;;;16.05;7.20;;;;;;;16.26;56.61;100470.97;4860374;28;96671;-82
2021/06/02 02:57:44;;;;;;;9.05;6.40;;;;;;;16.19;56.82;100472.25;4860204;28;97329;-82
2021/06/02 03:00:15;;;;;;;;;;;;;;;16.22;56.63;100480.03;4844361;28;101198;-82
2021/06/02 03:02:49;;;;;;;11.13;6.47;;;;;;;16.15;56.79;100479.53;4860051;28;101177;-82
2021/06/02 03:05:22;;;;;;;9.98;6.80;;;;;;;16.11;56.96;100477.97;4859975;28;97218;-81
2021/06/02 03:07:55;;;;;;;11.73;7.03;;;;;;;16.12;57.05;100489.44;4876513;28;96701;-82
2021/06/02 03:10:21;;;;;;;11.07;6.57;;;;;;;16.21;57.01;100486.28;4890698;28;98243;-81
2021/06/02 03:12:54;;;;;;;15.00;7.55;;;;;;;16.34;56.87;100491.75;4843752;28;101890;-81
2021/06/02 03:15:40;;;;;;;13.73;7.38;;;;;;;16.24;56.95;100500.19;4844196;28;96668;-82
2021/06/02 03:18:19;;;;;;;13.65;7.40;;;;;;;16.30;56.98;100489.25;4843709;28;97104;-81
2021/06/02 03:20:57;;;;;;;15.57;8.40;;;;;;;16.27;57.11;100497.38;4891868;28;98308;-82
2021/06/02 03:23:50;;;;;;;12.02;7.13;;;;;;;16.23;57.18;100497.63;4874696;28;101214;-81
2021/06/02 03:26:17;;;;;;;9.88;7.20;;;;;;;16.21;57.41;100495.06;4843588;28;97177;-81
2021/06/02 03:29:01;;;;;;;15.88;7.80;;;;;;;16.30;57.30;100505.16;4860425;28;96884;-81
2021/06/02 03:31:48;;;;;;;10.80;7.93;;;;;;;16.40;56.94;100508.16;4874813;28;100508;-81
2021/06/02 03:34:22;;;;;;;15.65;8.00;;;;;;;16.23;57.45;100513.50;4842291;28;100338;-79
2021/06/02 03:36:57;;;;;;;9.70;7.03;;;;;;;16.21;57.31;100510.13;4874193;28;97326;-80
2021/06/02 03:39:36;;;;;;;12.90;7.78;;;;;;;16.29;57.23;100510.56;4874279;28;96917;-80
2021/06/02 03:42:09;;;;;;;10.98;7.30;;;;;;;16.23;57.26;100506.44;4858668;28;101236;-80
2021/06/02 03:44:49;;;;;;;12.25;7.35;;;;;;;16.22;57.47;100517.09;4843797;28;101910;-81
2021/06/02 03:47:22;;;;;;;12.77;8.20;;;;;;;16.27;57.38;100513.28;4842975;28;97297;-80
2021/06/02 03:50:07;;;;;;;14.25;8.07;;;;;;;16.21;57.57;100513.59;4843208;28;96876;-81
2021/06/02 03:52:47;;;;;;;11.93;7.63;;;;;;;16.34;57.25;100523.53;4858585;28;101464;-80
2021/06/02 03:55:28;;;;;;;12.30;7.65;;;;;;;16.20;57.26;100519.84;4858896;28;101456;-81
2021/06/02 03:57:59;;;;;;;14.43;8.80;;;;;;;16.19;57.39;100526.06;4859474;28;97102;-80
2021/06/02 04:00:35;;;;;;;12.13;8.18;;;;;;;16.16;57.48;100522.75;4876097;28;96782;-81
2021/06/02 04:03:01;;;;;;;15.77;8.25;;;;;;;16.19;57.24;100525.22;4858294;28;100100;-78
2021/06/02 04:05:40;;;;;;;14.85;8.50;;;;;;;16.09;57.54;100530.16;4858752;28;100562;-81
2021/06/02 04:08:34;;;;;;;12.20;8.20;;;;;;;16.14;57.55;100529.91;4842649;28;96674;-81
2021/06/02 04:11:09;;;;;;;15.10;8.07;;;;;;;16.16;57.18;100528.88;4843370;28;97104;-80
2021/06/02 04:13:34;;;;;;;11.95;7.53;;;;;;;16.16;57.69;100528.88;4858285;28;101119;-81
2021/06/02 04:16:12;;;;;;;18.38;8.38;;;;;;;16.27;56.97;100528.31;4858836;28;99249;-79
2021/06/02 04:18:41;;;;;;;14.75;7.72;;;;;;;16.32;57.21;100536.00;4875175;28;97146;-81
2021/06/02 04:21:07;;;;;;;18.13;8.57;;;;;;;16.38;56.92;100533.88;4858936;28;96965;-81
2021/06/02 04:23:34;;;;;;;10.25;7.57;;;;;;;16.35;57.04;100542.00;4858792;28;101758;-80
2021/06/02 04:26:00;;;;;;;17.38;8.02;;;;;;;16.29;57.32;100539.69;4874220;28;101358;-79
2021/06/02 04:28:26;;;;;;;13.63;8.10;;;;;;;16.36;57.25;100543.72;4874448;28;96630;-83
2021/06/02 04:31:02;;;;;;;12.48;7.68;;;;;;;16.31;57.52;100551.03;4874795;28;96926;-80
2021/06/02 04:33:31;;;;;;;15.73;8.25;;;;;;;16.43;56.96;100554.81;4858663;28;101792;-83
2021/06/02 04:35:58;;;;;;;14.45;8.32;;;;;;;16.46;56.96;100557.28;4858703;28;101615;-81
2021/06/02 04:38:25;;;;;;;12.90;8.60;;;;;;;16.48;56.68;100558.91;4842788;28;96697;-81
2021/06/02 04:40:52;;;;;;;11.57;7.90;;;;;;;16.53;56.73;100561.34;4858993;28;96899;-83
2021/06/02 04:43:19;;;;;;;15.63;7.70;;;;;;;16.55;56.99;100566.53;4857296;28;101480;-82
2021/06/02 04:45:56;;;;;;;16.20;8.30;;;;;;;16.52;56.54;100562.25;4859001;28;100369;-82
2021/06/02 04:48:22;;;;;;;16.23;8.85;;;;;;;16.67;56.42;100573.84;4858249;28;96828;-83
2021/06/02 04:51:39;;;;;;;19.88;9.40;;;;;;;16.53;56.54;100567.47;4874591;28;96933;-82
2021/06/02 04:54:23;;;;;;;15.35;8.10;;;;;;;16.48;56.71;100576.63;4844765;28;97452;-80
2021/06/02 04:56:48;;;;;;;15.00;7.97;;;;;;;16.58;56.52;100574.31;4858545;28;102257;-83
2021/06/02 04:59:52;;;;;;;15.73;8.43;;;;;;;16.71;55.34;100572.72;4858520;28;97119;-82
2021/06/02 05:02:37;;;;;;;13.27;8.43;;;;;;;16.56;56.02;100579.72;4877989;28;97063;-81
2021/06/02 05:05:21;;;;;;;16.25;7.68;;;;;;;16.43;56.69;100582.16;4877100;28;101385;-80
2021/06/02 05:08:17;;;;;;;14.95;8.15;;;;;;;16.60;56.28;100585.69;4877901;28;97911;-83
2021/06/02 05:11:10;;;;;;;14.23;8.63;;;;;;;16.64;56.06;100585.44;4861818;28;96842;-81
2021/06/02 05:13:51;;;;;;;16.25;7.95;;;;;;;16.61;55.92;100590.03;4877674;28;96944;-82
2021/06/02 05:16:38;;;;;;;15.33;8.90;;;;;;;16.67;56.11;100593.22;4860818;28;101622;-82
2021/06/02 05:22:37;;;;;;;13.30;8.32;;;;;;;16.68;56.51;100597.59;4861368;28;97320;-80
2021/06/02 05:25:12;;;;;;;13.10;8.32;;;;;;;16.78;55.67;100597.94;4861160;28;97105;-79
2021/06/02 05:27:37;;;;;;;15.88;9.50;;;;;;;16.68;56.13;100599.38;4861263;28;101294;-81
2021/06/02 05:30:20;;;;;;;16.05;8.98;;;;;;;16.61;56.32;100604.19;4876763;28;101255;-79
2021/06/02 05:33:18;;;;;;;25.65;10.15;;;;;;;16.64;56.17;100605.78;4845486;28;96700;-81
2021/06/02 05:36:17;;;;;;;11.68;8.35;;;;;;;16.71;56.06;100607.16;4865991;28;97226;-81
2021/06/02 05:38:54;;;;;;;16.23;8.35;;;;;;;16.81;55.91;100605.72;4876864;28;101794;-81
2021/06/02 05:41:41;;;;;;;20.95;9.38;;;;;;;16.85;55.59;100609.94;4876673;28;97929;-81
2021/06/02 05:44:38;;;;;;;18.38;8.93;;;;;;;16.86;55.63;100608.13;4860741;28;96688;-79
2021/06/02 05:47:15;;;;;;;19.73;10.07;;;;;;;16.86;55.44;100608.13;4876918;28;96963;-79
2021/06/02 05:50:12;;;;;;;18.75;9.38;;;;;;;16.87;55.61;100609.84;4860899;28;101124;-82
2021/06/02 05:52:42;;;;;;;15.75;9.65;;;;;;;16.92;55.46;100616.59;4861421;28;101285;-82
2021/06/02 05:55:14;;;;;;;13.20;9.27;;;;;;;16.99;55.66;100609.19;4860748;28;96652;-80
2021/06/02 05:58:07;;;;;;;19.65;10.13;;;;;;;17.06;55.09;100615.00;4889303;28;97055;-81
2021/06/02 06:00:39;;;;;;;16.05;9.88;;;;;;;17.24;54.76;100610.44;4894577;28;101940;-81
2021/06/02 06:03:55;;;;;;;19.70;10.43;;;;;;;17.39;54.49;100618.38;4885142;28;101511;-79
2021/06/02 06:06:39;;;;;;;16.88;10.18;;;;;;;17.39;54.53;100617.50;4890486;28;97088;-81
2021/06/02 06:09:29;;;;;;;17.48;9.95;;;;;;;17.46;54.35;100623.34;4900627;28;96985;-81
2021/06/02 06:12:00;;;;;;;19.40;11.20;;;;;;;17.55;54.31;100626.28;4901821;28;101866;-83
2021/06/02 06:14:45;;;;;;;;;;;;;;;17.64;53.50;100624.91;4899326;28;100988;-80
2021/06/02 06:17:16;;;;;;;16.33;11.30;;;;;;;17.72;53.25;100627.97;4902133;28;96812;-81
2021/06/02 06:20:04;;;;;;;18.83;11.52;;;;;;;17.82;52.45;100633.63;4889044;28;97282;-81
2021/06/02 06:22:42;;;;;;;15.85;10.23;;;;;;;17.86;52.08;100625.38;4898069;28;98669;-81
2021/06/02 06:25:19;;;;;;;25.70;12.15;;;;;;;18.08;51.37;100640.03;4879747;28;99916;-82
2021/06/02 06:27:51;;;;;;;20.02;11.30;;;;;;;18.37;50.77;100626.78;4884614;28;96813;-82
2021/06/02 06:30:22;;;;;;;18.35;11.30;;;;;;;18.65;49.99;100636.56;4900142;28;97453;-80
2021/06/02 06:32:51;;;;;;;20.17;10.55;;;;;;;19.10;48.61;100630.13;4881103;28;101397;-80
2021/06/02 06:35:17;;;;;;;22.10;11.18;;;;;;;20.66;45.53;100645.38;4883278;28;101204;-82
2021/06/02 06:37:45;;;;;;;18.27;11.27;;;;;;;21.87;42.79;100639.13;4870172;28;97248;-82
2021/06/02 06:40:14;;;;;;;19.73;11.18;;;;;;;21.43;43.13;100634.47;4879220;28;97439;-82
2021/06/02 06:42:42;;;;;;;15.10;9.80;;;;;;;21.57;42.77;100639.63;4865239;28;101175;-84
2021/06/02 06:45:16;;;;;;;17.75;9.85;;;;;;;22.78;41.49;100630.25;4877299;28;101155;-82
2021/06/02 06:47:42;;;;;;;15.85;8.93;;;;;;;23.65;39.82;100637.44;4862572;28;97202;-84
2021/06/02 06:50:12;;;;;;;16.63;9.02;;;;;;;22.82;40.45;100638.88;4878161;28;97016;-82
2021/06/02 06:52:39;;;;;;;15.68;8.50;;;;;;;21.90;41.21;100640.72;4878043;28;101090;-83
2021/06/02 06:55:06;;;;;;;14.50;8.50;;;;;;;21.53;42.03;100648.00;4878303;28;98156;-83
2021/06/02 06:57:33;;;;;;;12.77;8.23;;;;;;;21.12;42.54;100639.38;4878875;28;96901;-83
2021/06/02 07:00:00;;;;;;;12.63;7.53;;;;;;;21.30;41.77;100650.53;4879167;28;97006;-82
2021/06/02 07:02:26;;;;;;;10.70;7.22;;;;;;;21.44;40.91;100644.22;4861346;28;101162;-83
2021/06/02 07:04:52;;;;;;;12.63;8.00;;;;;;;21.25;41.24;100656.19;4860397;28;98445;-83
2021/06/02 07:07:18;;;;;;;10.57;7.32;;;;;;;20.92;41.72;100648.00;4858527;28;97799;-82
2021/06/02 07:09:45;;;;;;;13.23;6.90;;;;;;;20.63;42.66;100650.06;4877067;28;97127;-82
2021/06/02 07:12:16;;;;;;;12.80;7.30;;;;;;;20.47;42.29;100659.09;4875802;28;101258;-82
2021/06/02 07:14:42;;;;;;;11.13;6.82;;;;;;;20.58;42.54;100658.38;4872472;28;99008;-81
2021/06/02 07:17:08;;;;;;;12.07;6.80;;;;;;;20.71;41.95;100656.56;4873165;28;97304;-81
2021/06/02 07:19:37;;;;;;;15.43;6.68;;;;;;;20.53;42.53;100663.19;4841664;28;96989;-80
2021/06/02 07:22:03;;;;;;;9.85;6.88;;;;;;;20.44;42.71;100661.13;4874105;28;100092;-79
2021/06/02 07:24:29;;;;;;;11.00;6.38;;;;;;;20.60;43.02;100660.97;4874592;28;101165;-78
2021/06/02 07:26:56;;;;;;;15.23;7.22;;;;;;;20.78;42.46;100662.31;4859924;28;97079;-83
2021/06/02 07:29:25;;;;;;;11.73;6.68;;;;;;;20.86;42.41;100656.44;4876717;28;96875;-83
2021/06/02 07:31:51;;;;;;;12.30;6.30;;;;;;;20.80;42.07;100661.25;4860108;28;98076;-83
2021/06/02 07:34:17;;;;;;;12.57;7.32;;;;;;;20.83;41.68;100659.28;4875455;28;97602;-82
2021/06/02 07:36:43;;;;;;;13.93;7.18;;;;;;;20.87;41.69;100669.66;4875776;28;97430;-82
2021/06/02 07:39:08;;;;;;;10.98;6.93;;;;;;;21.09;41.91;100662.75;4859197;28;97656;-79
2021/06/02 07:41:34;;;;;;;11.43;6.43;;;;;;;21.29;41.71;100663.97;4876229;28;102196;-82
2021/06/02 07:43:59;;;;;;;12.32;7.00;;;;;;;21.31;42.12;100667.41;4875280;28;101474;-83
2021/06/02 07:46:26;;;;;;;12.18;6.57;;;;;;;21.34;42.33;100660.00;4850248;28;97013;-83
2021/06/02 07:48:52;;;;;;;14.02;7.47;;;;;;;21.12;42.84;100663.41;4873683;28;96970;-83
2021/06/02 07:51:22;;;;;;;11.88;5.90;;;;;;;21.33;42.93;100668.16;4844984;28;100212;-84
2021/06/02 07:53:48;;;;;;;14.10;6.68;;;;;;;21.45;42.34;100669.94;4874966;28;100055;-82
2021/06/02 07:56:13;;;;;;;14.43;5.65;;;;;;;21.36;41.46;100678.59;4858524;28;96705;-83
2021/06/02 07:58:40;;;;;;;10.70;5.38;;;;;;;21.34;39.64;100676.03;4866236;28;98127;-84
2021/06/02 08:01:06;;;;;;;10.65;5.32;;;;;;;21.32;40.14;100675.31;4892191;28;98239;-89
2021/06/02 08:03:31;;;;;;;11.88;5.25;;;;;;;22.08;38.30;100675.91;4877612;28;101221;-89
2021/06/02 08:05:57;;;;;;;11.27;5.75;;;;;;;22.93;36.96;100683.53;4874726;28;96743;-89
2021/06/02 08:08:22;;;;;;;9.25;5.18;;;;;;;22.83;36.34;100686.06;4862436;28;96998;-84
2021/06/02 08:10:53;;;;;;;9.25;4.93;;;;;;;23.52;35.07;100685.88;4860185;28;101695;-86
2021/06/02 08:13:37;;;;;;;14.00;5.15;;;;;;;25.86;32.29;100687.88;4872387;28;101694;-81
2021/06/02 08:16:03;;;;;;;15.57;5.70;;;;;;;24.97;32.74;100677.09;4887791;28;97237;-83
2021/06/02 08:18:29;;;;;;;8.60;5.80;;;;;;;24.36;33.35;100676.09;4875093;28;97314;-83
2021/06/02 08:20:56;;;;;;;7.82;5.80;;;;;;;25.36;32.82;100685.28;4861415;28;101539;-90
2021/06/02 08:23:21;;;;;;;7.35;5.03;;;;;;;27.20;30.55;100673.31;4874661;28;101149;-85
2021/06/02 08:25:47;;;;;;;15.18;6.25;;;;;;;27.90;29.58;100685.19;4879019;28;96954;-85
2021/06/02 08:28:12;;;;;;;11.00;4.82;;;;;;;27.79;28.94;100671.09;4878799;28;97088;-88
2021/06/02 08:30:38;;;;;;;9.55;5.10;;;;;;;28.18;28.77;100685.03;4877250;28;101594;-89
2021/06/02 08:33:04;;;;;;;10.95;5.22;;;;;;;28.78;28.26;100686.97;4879204;28;100779;-88
2021/06/02 08:35:29;;;;;;;7.22;4.95;;;;;;;28.82;27.22;100677.53;4865296;28;96843;-89
2021/06/02 08:37:56;;;;;;;8.40;4.43;;;;;;;29.39;27.12;100680.44;4872736;28;97008;-89
2021/06/02 08:40:21;;;;;;;11.35;4.82;;;;;;;29.53;26.96;100676.25;4866047;28;100674;-88
2021/06/02 08:42:47;;;;;;;7.18;4.68;;;;;;;29.50;26.73;100674.72;4882237;28;100923;-91
2021/06/02 08:45:14;;;;;;;10.07;4.38;;;;;;;30.01;25.63;100670.03;4880914;28;96801;-86
2021/06/02 08:47:44;;;;;;;8.38;4.30;;;;;;;29.82;26.30;100678.50;4867315;28;97021;-92
2021/06/02 08:50:11;;;;;;;24.45;4.75;;;;;;;30.41;26.03;100681.00;4866348;28;101461;-93
2021/06/02 08:52:38;;;;;;;5.07;3.78;;;;;;;30.10;25.19;100681.69;4863940;28;101400;-89
2021/06/02 08:55:06;;;;;;;4.70;3.60;;;;;;;29.75;25.47;100677.47;4882143;28;96881;-92
2021/06/02 08:57:32;;;;;;;5.78;4.05;;;;;;;29.84;26.47;100686.44;4865455;28;96828;-89
2021/06/02 08:59:58;;;;;;;5.78;3.65;;;;;;;29.49;26.77;100685.69;4891016;28;100599;-91
2021/06/02 09:02:24;;;;;;;8.48;3.63;;;;;;;29.35;26.99;100681.78;4858979;28;101868;-92
2021/06/02 09:04:50;;;;;;;6.10;3.28;;;;;;;29.29;26.57;100674.31;4882840;28;97280;-89
2021/06/02 09:07:16;;;;;;;6.20;3.55;;;;;;;28.37;26.50;100684.00;4862829;28;96996;-87
2021/06/02 09:09:43;;;;;;;6.32;3.15;;;;;;;28.25;27.14;100680.72;4862918;28;101484;-89
2021/06/02 09:12:12;;;;;;;5.50;3.38;;;;;;;28.15;28.26;100682.66;4877154;28;100276;-92
2021/06/02 09:14:38;;;;;;;6.70;3.63;;;;;;;27.28;29.18;100684.19;4882822;28;96645;-93
2021/06/02 09:17:09;;;;;;;5.93;3.20;;;;;;;27.14;29.34;100680.16;4879466;28;97361;-92
2021/06/02 09:19:39;;;;;;;8.50;2.90;;;;;;;27.19;29.79;100677.88;4881497;28;101585;-92
2021/06/02 09:22:27;;;;;;;5.35;3.58;;;;;;;27.52;29.15;100675.53;4882429;28;100474;-91
2021/06/02 09:25:01;;;;;;;5.05;2.55;;;;;;;27.53;27.55;100682.63;4881693;28;96756;-91
2021/06/02 09:27:39;;;;;;;5.70;1.90;;;;;;;27.34;25.80;100685.44;4866607;28;97235;-92
2021/06/02 09:30:07;;;;;;;3.58;1.90;;;;;;;27.20;25.86;100679.59;4897598;28;98477;-89
2021/06/02 09:32:44;;;;;;;5.38;2.30;;;;;;;26.63;25.58;100692.31;4864532;28;101791;-89
2021/06/02 09:35:10;;;;;;;7.78;2.25;;;;;;;26.78;26.29;100673.81;4879840;28;96882;-92
2021/06/02 09:38:06;;;;;;;4.15;2.42;;;;;;;27.18;25.38;100688.81;4861040;28;97482;-91
2021/06/02 09:40:37;;;;;;;5.68;2.85;;;;;;;27.01;25.36;100688.59;4872753;28;100434;-89
2021/06/02 09:43:03;;;;;;;8.50;2.58;;;;;;;27.42;25.78;100680.97;4861326;28;101276;-92
2021/06/02 09:45:29;;;;;;;3.90;2.10;;;;;;;27.51;25.49;100677.38;4863081;28;97155;-88
2021/06/02 09:47:56;;;;;;;5.40;2.67;;;;;;;26.57;26.22;100699.13;4870270;28;97543;-92
2021/06/02 09:50:37;;;;;;;4.50;2.47;;;;;;;26.19;26.70;100692.81;4878015;28;101682;-90
2021/06/02 09:53:11;;;;;;;7.38;2.40;;;;;;;26.30;26.36;100694.50;4863035;28;97815;-90
2021/06/02 09:55:39;;;;;;;4.30;2.30;;;;;;;26.29;26.65;100698.16;4881936;28;97469;-90
2021/06/02 09:58:07;;;;;;;3.20;2.50;;;;;;;25.84;26.90;100679.13;4871357;28;97324;-90
2021/06/02 10:00:34;;;;;;;8.45;2.50;;;;;;;25.62;27.19;100681.06;4902550;28;98442;-90
2021/06/02 10:03:06;;;;;;;9.55;2.40;;;;;;;25.32;27.36;100703.50;4877516;28;101516;-90
2021/06/02 10:05:39;;;;;;;3.80;2.30;;;;;;;24.96;27.57;100689.69;4872622;28;97301;-90
2021/06/02 10:08:07;;;;;;;4.57;2.10;;;;;;;24.80;27.65;100675.91;4863059;28;96821;-90
2021/06/02 10:10:33;;;;;;;5.20;2.47;;;;;;;25.07;28.10;100686.03;4864333;28;100409;-89
2021/06/02 10:13:10;;;;;;;5.07;2.03;;;;;;;25.01;28.10;100684.72;4886735;28;101442;-89
2021/06/02 10:15:36;;;;;;;4.10;2.20;;;;;;;25.20;27.91;100693.88;4869407;28;96745;-90
2021/06/02 10:18:04;;;;;;;7.50;2.13;;;;;;;25.23;28.23;100694.44;4894441;28;97250;-91
2021/06/02 10:20:30;;;;;;;6.07;2.15;;;;;;;24.93;28.46;100695.31;4861309;28;101647;-89
2021/06/02 10:22:57;;;;;;;6.82;2.80;;;;;;;24.88;28.48;100692.19;4891938;28;101038;-90
2021/06/02 10:25:25;;;;;;;4.85;2.35;;;;;;;24.82;29.01;100698.09;4882434;28;97172;-88
2021/06/02 10:27:56;;;;;;;6.15;2.00;;;;;;;24.54;28.54;100692.44;4887579;28;97149;-91
2021/06/02 10:30:24;;;;;;;4.13;2.38;;;;;;;24.25;29.33;100704.81;4880419;28;99992;-90
2021/06/02 10:32:55;;;;;;;4.22;2.25;;;;;;;24.16;29.14;100698.41;4882464;28;101795;-89
2021/06/02 10:35:21;;;;;;;6.07;1.92;;;;;;;24.12;29.09;100705.03;4883430;28;98029;-90
2021/06/02 10:37:46;;;;;;;5.32;1.70;;;;;;;24.20;29.13;100697.16;4890999;28;97312;-90
2021/06/02 10:40:18;;;;;;;6.00;2.15;;;;;;;24.22;29.25;100694.34;4888040;28;97904;-91
2021/06/02 10:43:04;;;;;;;4.10;1.90;;;;;;;23.99;29.63;100693.63;4866126;28;101231;-89
2021/06/02 10:45:32;;;;;;;3.42;2.03;;;;;;;23.87;29.88;100691.00;4892081;28;96974;-90
2021/06/02 10:48:00;;;;;;;8.05;2.20;;;;;;;23.83;30.17;100689.56;4879283;28;97021;-87
2021/06/02 10:50:43;;;;;;;4.38;2.30;;;;;;;23.56;30.03;100705.22;4877077;28;101019;-88
2021/06/02 10:53:17;;;;;;;5.43;2.10;;;;;;;23.55;30.70;100690.97;4856713;28;101502;-83
2021/06/02 10:55:43;;;;;;;3.85;2.08;;;;;;;23.59;30.31;100684.41;4869341;28;97866;-84
2021/06/02 10:58:19;;;;;;;4.82;2.40;;;;;;;23.78;30.62;100682.88;4859077;28;97201;-80
2021/06/02 11:00:46;;;;;;;6.40;1.92;;;;;;;23.67;30.82;100689.94;4840832;28;102192;-80
2021/06/02 11:03:18;;;;;;;5.25;2.08;;;;;;;23.75;30.11;100699.22;4858156;28;101332;-83
2021/06/02 11:05:43;;;;;;;5.75;2.30;;;;;;;23.75;30.80;100683.16;4859294;28;97083;-84
2021/06/02 11:08:09;;;;;;;2.72;1.80;;;;;;;23.83;30.38;100705.66;4859708;28;97019;-84
2021/06/02 11:10:35;;;;;;;7.65;2.00;;;;;;;23.64;30.05;100686.69;4874382;28;100425;-87
2021/06/02 11:13:02;;;;;;;5.20;2.42;;;;;;;23.61;30.52;100682.41;4843909;28;100107;-88
2021/06/02 11:15:31;;;;;;;5.13;2.63;;;;;;;23.39;30.55;100685.19;4844201;28;96829;-83
2021/06/02 11:18:06;;;;;;;4.60;2.20;;;;;;;23.24;30.49;100684.59;4859474;28;97496;-83
2021/06/02 11:20:51;;;;;;;5.00;2.22;;;;;;;23.24;30.61;100681.91;4857517;28;101532;-83
2021/06/02 11:23:22;;;;;;;4.38;2.03;;;;;;;23.18;30.38;100687.78;4845165;28;101809;-82
2021/06/02 11:25:48;;;;;;;6.85;2.20;;;;;;;23.30;30.70;100685.91;4875524;28;98029;-82
2021/06/02 11:28:39;;;;;;;4.53;2.38;;;;;;;23.22;30.71;100686.56;4876283;28;96954;-82
2021/06/02 11:31:24;;;;;;;9.88;2.53;;;;;;;23.02;30.37;100685.50;4900096;28;98713;-82
2021/06/02 11:33:51;;;;;;;4.28;2.22;;;;;;;22.91;30.92;100675.63;4886284;28;100764;-82
2021/06/02 11:36:16;;;;;;;5.00;2.10;;;;;;;23.03;31.36;100676.47;4868541;28;97249;-81
2021/06/02 11:38:43;;;;;;;6.40;2.55;;;;;;;23.00;30.69;100687.44;4881667;28;97064;-85
2021/06/02 11:41:13;;;;;;;4.90;2.22;;;;;;;22.87;30.92;100687.56;4896095;28;98232;-87
2021/06/02 11:43:40;;;;;;;3.67;2.22;;;;;;;22.92;31.26;100685.38;4863797;28;100432;-87
2021/06/02 11:46:06;;;;;;;4.82;2.05;;;;;;;23.08;30.88;100676.97;4863383;28;96763;-85
2021/06/02 11:48:33;;;;;;;4.65;2.00;;;;;;;23.21;30.76;100679.50;4880957;28;97111;-84